createdAt,value
2023-04-09T00:01:02.335Z,85.65
2023-04-09T00:02:10.529Z,85.73
2023-04-09T00:03:13.606Z,85.66
2023-04-09T00:04:16.667Z,85.74
2023-04-09T00:05:19.584Z,85.62
2023-04-09T00:06:22.475Z,85.67
2023-04-09T00:07:25.338Z,85.61
2023-04-09T00:08:28.401Z,85.80
2023-04-09T00:09:32.109Z,85.59
2023-04-09T00:10:35.036Z,85.67
2023-04-09T00:11:37.924Z,85.71
2023-04-09T00:12:40.928Z,85.73
2023-04-09T00:13:43.792Z,85.67
2023-04-09T00:14:46.624Z,85.54
2023-04-09T00:15:49.544Z,85.56
2023-04-09T00:16:52.437Z,85.59
2023-04-09T00:17:56.320Z,85.59
2023-04-09T00:18:59.225Z,85.58
2023-04-09T00:20:02.100Z,85.51
2023-04-09T00:21:05.690Z,85.60
2023-04-09T00:22:08.569Z,85.71
2023-04-09T00:23:12.963Z,85.70
2023-04-09T00:24:16.192Z,85.88
2023-04-09T00:25:20.121Z,85.88
2023-04-09T00:26:23.083Z,86.02
2023-04-09T00:27:25.962Z,85.93
2023-04-09T00:28:28.868Z,86.09
2023-04-09T00:29:31.700Z,86.11
2023-04-09T00:30:34.584Z,86.19
2023-04-09T00:31:37.477Z,86.07
2023-04-09T00:32:40.686Z,86.37
2023-04-09T00:33:44.124Z,86.20
2023-04-09T00:34:47.019Z,86.29
2023-04-09T00:35:50.033Z,86.37
2023-04-09T00:36:52.971Z,86.38
2023-04-09T00:37:56.177Z,86.35
2023-04-09T00:38:59.234Z,86.35
2023-04-09T00:40:02.216Z,86.38
2023-04-09T00:41:05.566Z,86.32
2023-04-09T00:42:08.624Z,86.38
2023-04-09T00:43:12.137Z,86.34
2023-04-09T00:44:14.981Z,86.27
2023-04-09T00:45:17.960Z,86.37
2023-04-09T00:46:21.197Z,86.48
2023-04-09T00:47:24.227Z,86.52
2023-04-09T00:48:27.770Z,86.65
2023-04-09T00:49:30.978Z,86.51
2023-04-09T00:50:34.073Z,86.51
2023-04-09T00:51:37.298Z,86.74
2023-04-09T00:52:40.326Z,86.70
2023-04-09T00:53:44.085Z,86.63
2023-04-09T00:54:50.997Z,86.73
2023-04-09T00:55:55.855Z,86.81
2023-04-09T00:56:59.762Z,86.98
2023-04-09T00:58:03.248Z,86.91
2023-04-09T00:59:06.346Z,86.94
2023-04-09T01:00:09.835Z,86.98
2023-04-09T01:01:12.792Z,86.95
2023-04-09T01:02:15.756Z,86.76
2023-04-09T01:03:19.009Z,86.81
2023-04-09T01:04:23.375Z,86.87
2023-04-09T01:05:38.542Z,86.87
2023-04-09T01:07:03.646Z,86.80
2023-04-09T01:08:28.067Z,86.95
2023-04-09T01:09:37.201Z,86.97
2023-04-09T01:10:52.258Z,86.95
2023-04-09T01:12:02.890Z,87.11
2023-04-09T01:13:30.870Z,87.00
2023-04-09T01:14:54.891Z,87.06
2023-04-09T01:16:01.946Z,87.05
2023-04-09T01:17:11.625Z,86.94
2023-04-09T01:18:24.143Z,87.00
2023-04-09T01:19:58.663Z,87.03
2023-04-09T01:21:04.951Z,87.11
2023-04-09T01:22:23.644Z,87.20
2023-04-09T01:23:45.454Z,87.27
2023-04-09T01:25:03.657Z,87.33
2023-04-09T01:26:22.898Z,87.41
2023-04-09T01:27:42.253Z,87.44
2023-04-09T01:28:47.948Z,87.40
2023-04-09T01:29:53.625Z,87.45
2023-04-09T01:31:03.766Z,87.40
2023-04-09T01:32:08.030Z,87.48
2023-04-09T01:33:12.172Z,87.41
2023-04-09T01:34:16.638Z,87.43
2023-04-09T01:35:20.411Z,87.60
2023-04-09T01:36:26.550Z,87.56
2023-04-09T01:37:29.800Z,87.67
2023-04-09T01:38:35.345Z,87.52
2023-04-09T01:39:39.150Z,87.63
2023-04-09T01:40:42.916Z,87.62
2023-04-09T01:41:46.970Z,87.65
2023-04-09T01:42:51.164Z,87.59
2023-04-09T01:43:55.603Z,87.66
2023-04-09T01:44:59.436Z,87.81
2023-04-09T01:46:03.769Z,87.74
2023-04-09T01:47:08.522Z,87.74
2023-04-09T01:48:14.208Z,87.66
2023-04-09T01:49:18.745Z,87.63
2023-04-09T01:50:22.248Z,87.67
2023-04-09T01:51:27.402Z,87.76
2023-04-09T01:52:30.538Z,87.82
2023-04-09T01:53:33.701Z,87.87
2023-04-09T01:54:36.569Z,87.84
2023-04-09T01:55:40.019Z,87.78
2023-04-09T01:56:47.779Z,88.02
2023-04-09T01:57:50.934Z,87.96
2023-04-09T01:58:53.985Z,87.92
2023-04-09T01:59:57.100Z,88.06
2023-04-09T02:01:26.625Z,87.99
2023-04-09T02:02:37.502Z,88.13
2023-04-09T02:03:51.606Z,88.08
2023-04-09T02:04:58.846Z,88.12
2023-04-09T02:06:14.632Z,87.99
2023-04-09T02:07:30.662Z,88.03
2023-04-09T02:08:34.939Z,88.00
2023-04-09T02:09:41.090Z,87.92
2023-04-09T02:10:53.326Z,88.15
2023-04-09T02:11:59.026Z,88.15
2023-04-09T02:13:05.863Z,88.20
2023-04-09T02:14:11.290Z,88.10
2023-04-09T02:15:15.588Z,88.06
2023-04-09T02:16:19.819Z,88.10
2023-04-09T02:17:23.342Z,88.04
2023-04-09T02:18:28.849Z,87.91
2023-04-09T02:19:46.169Z,88.04
2023-04-09T02:20:49.941Z,88.04
2023-04-09T02:21:52.768Z,88.11
2023-04-09T02:22:55.758Z,88.21
2023-04-09T02:23:58.653Z,88.25
2023-04-09T02:25:01.776Z,88.03
2023-04-09T02:26:04.872Z,88.25
2023-04-09T02:27:08.336Z,88.18
2023-04-09T02:28:11.228Z,88.34
2023-04-09T02:29:14.082Z,88.27
2023-04-09T02:30:16.981Z,88.28
2023-04-09T02:31:19.849Z,88.28
2023-04-09T02:32:22.816Z,88.50
2023-04-09T02:33:26.436Z,88.44
2023-04-09T02:34:29.827Z,88.56
2023-04-09T02:35:33.663Z,88.62
2023-04-09T02:36:36.677Z,88.48
2023-04-09T02:37:39.537Z,88.36
2023-04-09T02:38:42.894Z,88.32
2023-04-09T02:39:45.973Z,88.36
2023-04-09T02:40:48.843Z,88.41
2023-04-09T02:41:52.516Z,88.31
2023-04-09T02:42:55.686Z,88.50
2023-04-09T02:43:58.541Z,88.50
2023-04-09T02:45:01.776Z,88.47
2023-04-09T02:46:08.268Z,88.53
2023-04-09T02:47:11.432Z,88.62
2023-04-09T02:48:14.948Z,88.54
2023-04-09T02:49:19.446Z,88.62
2023-04-09T02:50:22.353Z,88.59
2023-04-09T02:51:27.600Z,88.66
2023-04-09T02:52:30.552Z,88.71
2023-04-09T02:53:33.441Z,88.71
2023-04-09T02:54:36.309Z,88.65
2023-04-09T02:55:39.193Z,88.91
2023-04-09T02:56:42.186Z,88.92
2023-04-09T02:57:45.609Z,88.84
2023-04-09T02:58:51.685Z,88.68
2023-04-09T02:59:55.717Z,88.75
2023-04-09T03:00:58.648Z,88.65
2023-04-09T03:02:01.634Z,88.60
2023-04-09T03:03:04.856Z,88.66
2023-04-09T03:04:07.994Z,88.76
2023-04-09T03:05:11.249Z,88.79
2023-04-09T03:06:14.254Z,88.71
2023-04-09T03:07:17.106Z,88.71
2023-04-09T03:08:20.028Z,88.82
2023-04-09T03:09:23.032Z,88.77
2023-04-09T03:10:25.921Z,88.80
2023-04-09T03:11:29.095Z,88.88
2023-04-09T03:12:32.181Z,88.88
2023-04-09T03:13:35.259Z,89.05
2023-04-09T03:14:38.164Z,88.88
2023-04-09T03:15:41.703Z,88.88
2023-04-09T03:16:44.664Z,88.89
2023-04-09T03:17:47.589Z,88.97
2023-04-09T03:18:50.658Z,88.97
2023-04-09T03:19:54.408Z,88.98
2023-04-09T03:20:57.622Z,89.09
2023-04-09T03:22:01.182Z,89.08
2023-04-09T03:23:07.083Z,89.26
2023-04-09T03:24:14.492Z,89.09
2023-04-09T03:25:19.778Z,89.28
2023-04-09T03:26:23.216Z,89.25
2023-04-09T03:27:26.757Z,89.27
2023-04-09T03:28:31.418Z,89.39
2023-04-09T03:29:34.564Z,89.26
2023-04-09T03:30:37.461Z,89.37
2023-04-09T03:31:41.931Z,89.28
2023-04-09T03:32:45.103Z,89.25
2023-04-09T03:33:49.233Z,89.38
2023-04-09T03:34:52.224Z,89.29
2023-04-09T03:35:55.998Z,89.31
2023-04-09T03:37:05.814Z,89.41
2023-04-09T03:38:08.736Z,89.27
2023-04-09T03:39:11.683Z,89.24
2023-04-09T03:40:17.749Z,89.38
2023-04-09T03:41:20.658Z,89.39
2023-04-09T03:42:23.579Z,89.52
2023-04-09T03:43:27.719Z,89.38
2023-04-09T03:44:30.823Z,89.51
2023-04-09T03:45:41.732Z,89.42
2023-04-09T03:47:01.831Z,89.54
2023-04-09T03:48:05.105Z,89.39
2023-04-09T03:49:08.405Z,89.57
2023-04-09T03:50:15.777Z,89.60
2023-04-09T03:51:22.879Z,89.48
2023-04-09T03:52:29.911Z,89.88
2023-04-09T03:53:42.534Z,89.78
2023-04-09T03:54:45.442Z,89.69
2023-04-09T03:55:52.079Z,89.70
2023-04-09T03:56:59.285Z,89.78
2023-04-09T03:58:02.195Z,89.89
2023-04-09T03:59:07.854Z,89.89
2023-04-09T04:00:14.529Z,89.94
2023-04-09T04:01:45.065Z,90.03
2023-04-09T04:02:48.335Z,90.10
2023-04-09T04:03:51.814Z,89.99
2023-04-09T04:04:58.381Z,89.95
2023-04-09T04:06:04.300Z,89.89
2023-04-09T04:07:15.976Z,89.82
2023-04-09T04:08:24.515Z,89.80
2023-04-09T04:09:27.368Z,89.75
2023-04-09T04:10:34.442Z,89.74
2023-04-09T04:11:37.943Z,89.89
2023-04-09T04:12:41.597Z,89.72
2023-04-09T04:13:49.177Z,89.67
2023-04-09T04:14:52.032Z,89.60
2023-04-09T04:16:02.806Z,89.69
2023-04-09T04:17:05.727Z,89.52
2023-04-09T04:18:10.333Z,89.40
2023-04-09T04:19:25.634Z,89.45
2023-04-09T04:20:28.476Z,89.45
2023-04-09T04:21:41.854Z,89.36
2023-04-09T04:22:44.740Z,89.44
2023-04-09T04:23:47.764Z,89.42
2023-04-09T04:24:54.111Z,89.34
2023-04-09T04:25:58.200Z,89.50
2023-04-09T04:27:07.154Z,89.52
2023-04-09T04:28:11.395Z,89.48
2023-04-09T04:29:16.904Z,89.56
2023-04-09T04:30:25.055Z,89.62
2023-04-09T04:31:35.059Z,89.60
2023-04-09T04:32:38.416Z,89.53
2023-04-09T04:33:44.497Z,89.68
2023-04-09T04:34:50.590Z,89.65
2023-04-09T04:36:12.170Z,89.60
2023-04-09T04:37:17.736Z,89.67
2023-04-09T04:38:20.794Z,89.62
2023-04-09T04:39:24.205Z,89.74
2023-04-09T04:40:31.680Z,89.57
2023-04-09T04:41:37.685Z,89.64
2023-04-09T04:42:49.988Z,89.74
2023-04-09T04:43:52.868Z,89.71
2023-04-09T04:44:58.415Z,89.78
2023-04-09T04:46:13.978Z,90.00
2023-04-09T04:47:16.896Z,90.13
2023-04-09T04:48:19.805Z,90.21
2023-04-09T04:49:23.366Z,90.15
2023-04-09T04:50:27.154Z,90.33
2023-04-09T04:51:34.654Z,90.19
2023-04-09T04:52:41.151Z,90.46
2023-04-09T04:53:44.832Z,90.55
2023-04-09T04:54:49.209Z,90.46
2023-04-09T04:55:55.947Z,90.56
2023-04-09T04:57:01.700Z,90.58
2023-04-09T04:58:10.239Z,90.63
2023-04-09T04:59:19.099Z,90.35
2023-04-09T05:00:41.399Z,90.53
2023-04-09T05:01:44.428Z,90.59
2023-04-09T05:02:48.504Z,90.42
2023-04-09T05:04:11.392Z,90.64
2023-04-09T05:05:14.497Z,90.68
2023-04-09T05:06:23.094Z,90.80
2023-04-09T05:07:26.012Z,90.66
2023-04-09T05:08:48.966Z,90.93
2023-04-09T05:09:52.129Z,90.99
2023-04-09T05:11:15.278Z,91.10
2023-04-09T05:12:19.311Z,91.10
2023-04-09T05:13:25.231Z,91.07
2023-04-09T05:14:28.257Z,91.02
2023-04-09T05:15:31.552Z,91.14
2023-04-09T05:16:34.460Z,91.02
2023-04-09T05:17:43.208Z,91.21
2023-04-09T05:18:47.287Z,91.14
2023-04-09T05:19:53.859Z,91.09
2023-04-09T05:21:01.405Z,91.02
2023-04-09T05:22:06.182Z,91.09
2023-04-09T05:23:10.452Z,91.07
2023-04-09T05:24:18.057Z,91.11
2023-04-09T05:25:21.115Z,91.09
2023-04-09T05:26:24.179Z,91.04
2023-04-09T05:27:33.146Z,91.02
2023-04-09T05:28:37.300Z,91.21
2023-04-09T05:29:49.925Z,91.08
2023-04-09T05:30:53.350Z,91.17
2023-04-09T05:31:56.429Z,91.22
2023-04-09T05:33:04.471Z,91.12
2023-04-09T05:34:07.467Z,91.26
2023-04-09T05:35:19.674Z,91.16
2023-04-09T05:36:22.607Z,91.16
2023-04-09T05:37:25.801Z,91.18
2023-04-09T05:38:28.956Z,91.41
2023-04-09T05:39:33.421Z,91.26
2023-04-09T05:40:36.735Z,91.26
2023-04-09T05:41:42.093Z,91.33
2023-04-09T05:43:08.098Z,91.40
2023-04-09T05:44:16.938Z,91.51
2023-04-09T05:45:19.936Z,91.30
2023-04-09T05:46:25.877Z,91.45
2023-04-09T05:47:29.781Z,91.29
2023-04-09T05:48:43.028Z,91.13
2023-04-09T05:49:47.271Z,91.09
2023-04-09T05:50:55.513Z,91.14
2023-04-09T05:52:01.005Z,91.11
2023-04-09T05:53:05.253Z,91.15
2023-04-09T05:54:13.916Z,91.28
2023-04-09T05:55:17.307Z,91.20
2023-04-09T05:56:28.095Z,91.20
2023-04-09T05:57:32.748Z,91.11
2023-04-09T05:58:38.347Z,91.11
2023-04-09T05:59:41.265Z,90.96
2023-04-09T06:00:44.143Z,91.05
2023-04-09T06:01:47.067Z,91.02
2023-04-09T06:02:50.310Z,91.06
2023-04-09T06:03:56.082Z,91.01
2023-04-09T06:05:00.750Z,90.76
2023-04-09T06:06:03.769Z,90.82
2023-04-09T06:07:06.644Z,90.69
2023-04-09T06:08:09.515Z,90.83
2023-04-09T06:09:12.794Z,90.88
2023-04-09T06:10:16.009Z,90.94
2023-04-09T06:11:18.920Z,90.91
2023-04-09T06:12:22.196Z,90.69
2023-04-09T06:13:25.041Z,90.70
2023-04-09T06:14:28.037Z,90.79
2023-04-09T06:15:30.912Z,90.82
2023-04-09T06:16:33.837Z,90.58
2023-04-09T06:17:36.938Z,90.50
2023-04-09T06:18:39.835Z,90.53
2023-04-09T06:19:42.684Z,90.59
2023-04-09T06:20:45.578Z,90.71
2023-04-09T06:21:48.427Z,90.72
2023-04-09T06:22:51.285Z,90.37
2023-04-09T06:23:54.513Z,90.47
2023-04-09T06:24:57.665Z,90.34
2023-04-09T06:26:02.641Z,90.58
2023-04-09T06:27:06.020Z,90.79
2023-04-09T06:28:08.954Z,90.78
2023-04-09T06:29:11.824Z,90.59
2023-04-09T06:30:14.671Z,90.55
2023-04-09T06:31:17.805Z,90.65
2023-04-09T06:32:20.850Z,90.83
2023-04-09T06:33:24.350Z,90.58
2023-04-09T06:34:27.191Z,90.48
2023-04-09T06:35:30.086Z,90.40
2023-04-09T06:36:33.529Z,90.46
2023-04-09T06:37:36.524Z,90.35
2023-04-09T06:38:39.483Z,90.32
2023-04-09T06:39:47.708Z,90.37
2023-04-09T06:41:01.255Z,90.56
2023-04-09T06:42:04.148Z,90.39
2023-04-09T06:43:15.648Z,90.46
2023-04-09T06:44:26.451Z,90.58
2023-04-09T06:45:29.816Z,90.80
2023-04-09T06:46:32.729Z,90.59
2023-04-09T06:47:36.493Z,90.62
2023-04-09T06:48:39.705Z,90.47
2023-04-09T06:49:42.563Z,90.19
2023-04-09T06:50:45.791Z,90.06
2023-04-09T06:51:48.643Z,90.10
2023-04-09T06:52:52.935Z,89.66
2023-04-09T06:53:55.953Z,89.74
2023-04-09T06:54:59.085Z,89.93
2023-04-09T06:56:02.009Z,89.66
2023-04-09T06:57:06.669Z,89.65
2023-04-09T06:58:09.701Z,89.89
2023-04-09T06:59:12.616Z,90.10
2023-04-09T07:00:15.874Z,90.07
2023-04-09T07:01:19.082Z,89.74
2023-04-09T07:02:22.151Z,89.57
2023-04-09T07:03:27.935Z,89.49
2023-04-09T07:04:31.190Z,89.32
2023-04-09T07:05:34.099Z,89.41
2023-04-09T07:06:37.006Z,89.38
2023-04-09T07:07:39.853Z,89.24
2023-04-09T07:08:42.760Z,89.43
2023-04-09T07:09:46.167Z,89.41
2023-04-09T07:10:49.459Z,89.31
2023-04-09T07:11:52.513Z,88.98
2023-04-09T07:12:55.553Z,88.97
2023-04-09T07:13:59.613Z,89.02
2023-04-09T07:15:04.653Z,89.02
2023-04-09T07:16:07.572Z,88.96
2023-04-09T07:17:10.434Z,88.72
2023-04-09T07:18:13.374Z,88.67
2023-04-09T07:19:16.398Z,88.44
2023-04-09T07:20:19.348Z,88.33
2023-04-09T07:21:22.656Z,88.04
2023-04-09T07:22:27.368Z,88.04
2023-04-09T07:23:30.712Z,87.82
2023-04-09T07:24:33.700Z,87.64
2023-04-09T07:25:36.636Z,87.92
2023-04-09T07:26:39.660Z,87.84
2023-04-09T07:27:45.416Z,87.92
2023-04-09T07:28:48.269Z,87.96
2023-04-09T07:29:51.306Z,87.87
2023-04-09T07:30:54.204Z,87.55
2023-04-09T07:31:57.504Z,87.38
2023-04-09T07:33:00.802Z,87.37
2023-04-09T07:34:03.689Z,87.59
2023-04-09T07:35:09.943Z,87.64
2023-04-09T07:36:13.057Z,87.58
2023-04-09T07:37:16.348Z,87.21
2023-04-09T07:38:19.242Z,87.14
2023-04-09T07:39:22.416Z,87.11
2023-04-09T07:40:25.312Z,86.75
2023-04-09T07:41:28.170Z,86.77
2023-04-09T07:42:31.093Z,86.89
2023-04-09T07:43:34.312Z,86.96
2023-04-09T07:44:37.503Z,86.99
2023-04-09T07:45:40.424Z,87.17
2023-04-09T07:46:44.086Z,87.03
2023-04-09T07:47:47.054Z,86.75
2023-04-09T07:48:50.537Z,86.47
2023-04-09T07:49:53.804Z,86.61
2023-04-09T07:50:56.858Z,86.60
2023-04-09T07:52:00.510Z,86.68
2023-04-09T07:53:03.406Z,86.73
2023-04-09T07:54:06.565Z,86.51
2023-04-09T07:55:09.577Z,86.57
2023-04-09T07:56:12.439Z,86.57
2023-04-09T07:57:15.369Z,86.60
2023-04-09T07:58:18.228Z,86.69
2023-04-09T07:59:21.062Z,86.70
2023-04-09T08:00:23.997Z,86.46
2023-04-09T08:01:26.970Z,86.06
2023-04-09T08:02:30.460Z,86.11
2023-04-09T08:03:33.706Z,86.09
2023-04-09T08:04:36.924Z,85.73
2023-04-09T08:05:40.553Z,85.78
2023-04-09T08:06:46.893Z,85.79
2023-04-09T08:07:51.238Z,85.71
2023-04-09T08:08:54.481Z,85.68
2023-04-09T08:09:57.547Z,85.84
2023-04-09T08:11:00.417Z,85.72
2023-04-09T08:12:04.110Z,85.53
2023-04-09T08:13:07.016Z,85.47
2023-04-09T08:14:12.970Z,85.51
2023-04-09T08:15:16.181Z,85.49
2023-04-09T08:16:19.854Z,85.40
2023-04-09T08:17:23.394Z,85.06
2023-04-09T08:18:26.256Z,84.93
2023-04-09T08:19:29.101Z,84.85
2023-04-09T08:20:33.137Z,85.08
2023-04-09T08:21:43.354Z,85.34
2023-04-09T08:22:46.850Z,85.13
2023-04-09T08:23:49.832Z,85.12
2023-04-09T08:24:53.395Z,85.29
2023-04-09T08:25:56.527Z,85.18
2023-04-09T08:26:59.376Z,85.06
2023-04-09T08:28:02.483Z,85.02
2023-04-09T08:29:05.491Z,84.75
2023-04-09T08:30:09.100Z,84.40
2023-04-09T08:31:11.945Z,84.21
2023-04-09T08:32:15.411Z,84.50
2023-04-09T08:33:18.338Z,84.69
2023-04-09T08:34:22.282Z,84.84
2023-04-09T08:35:25.283Z,84.72
2023-04-09T08:36:28.532Z,84.82
2023-04-09T08:37:32.530Z,84.84
2023-04-09T08:38:35.457Z,84.17
2023-04-09T08:39:38.394Z,84.13
2023-04-09T08:40:41.406Z,84.20
2023-04-09T08:41:45.505Z,84.21
2023-04-09T08:42:55.355Z,83.92
2023-04-09T08:43:59.513Z,83.98
2023-04-09T08:45:06.288Z,83.97
2023-04-09T08:46:10.791Z,84.05
2023-04-09T08:47:13.793Z,83.96
2023-04-09T08:48:18.248Z,83.74
2023-04-09T08:49:21.715Z,83.27
2023-04-09T08:50:24.605Z,83.16
2023-04-09T08:51:28.813Z,83.28
2023-04-09T08:52:35.367Z,83.18
2023-04-09T08:53:39.133Z,83.07
2023-04-09T08:54:42.016Z,83.03
2023-04-09T08:55:48.585Z,83.25
2023-04-09T08:56:51.460Z,83.20
2023-04-09T08:57:54.330Z,83.77
2023-04-09T08:58:57.686Z,84.15
2023-04-09T09:00:00.563Z,83.97
2023-04-09T09:01:03.518Z,83.32
2023-04-09T09:02:07.746Z,82.61
2023-04-09T09:03:16.101Z,82.45
2023-04-09T09:04:19.152Z,82.15
2023-04-09T09:05:39.699Z,81.85
2023-04-09T09:06:42.620Z,81.50
2023-04-09T09:07:54.730Z,81.26
2023-04-09T09:09:01.047Z,81.24
2023-04-09T09:10:04.601Z,81.22
2023-04-09T09:11:07.648Z,81.00
2023-04-09T09:12:10.632Z,81.04
2023-04-09T09:13:22.716Z,81.06
2023-04-09T09:14:25.738Z,80.94
2023-04-09T09:15:30.153Z,80.82
2023-04-09T09:16:35.687Z,80.67
2023-04-09T09:17:54.885Z,80.55
2023-04-09T09:18:57.932Z,80.53
2023-04-09T09:20:19.720Z,80.29
2023-04-09T09:21:23.446Z,80.32
2023-04-09T09:22:26.360Z,80.42
2023-04-09T09:23:36.954Z,80.51
2023-04-09T09:24:50.441Z,80.61
2023-04-09T09:25:53.553Z,80.53
2023-04-09T09:26:57.501Z,80.51
2023-04-09T09:28:11.569Z,80.28
2023-04-09T09:29:14.799Z,80.07
2023-04-09T09:30:26.198Z,80.21
2023-04-09T09:31:29.411Z,80.25
2023-04-09T09:32:33.414Z,80.11
2023-04-09T09:33:36.596Z,80.08
2023-04-09T09:34:39.516Z,80.04
2023-04-09T09:35:49.569Z,79.99
2023-04-09T09:36:52.626Z,80.00
2023-04-09T09:38:04.245Z,79.81
2023-04-09T09:39:13.219Z,79.87
2023-04-09T09:40:28.928Z,80.04
2023-04-09T09:41:31.981Z,80.22
2023-04-09T09:42:34.930Z,80.44
2023-04-09T09:43:42.798Z,80.65
2023-04-09T09:44:45.737Z,80.77
2023-04-09T09:45:48.998Z,80.73
2023-04-09T09:46:51.997Z,80.39
2023-04-09T09:47:55.029Z,80.39
2023-04-09T09:48:57.959Z,80.26
2023-04-09T09:50:01.068Z,80.29
2023-04-09T09:51:11.926Z,80.14
2023-04-09T09:52:15.847Z,80.39
2023-04-09T09:53:23.190Z,80.01
2023-04-09T09:54:31.412Z,79.80
2023-04-09T09:55:39.221Z,79.84
2023-04-09T09:56:44.086Z,79.73
2023-04-09T09:57:49.342Z,79.58
2023-04-09T09:59:03.917Z,79.78
2023-04-09T10:00:12.290Z,79.89
2023-04-09T10:01:18.377Z,79.79
2023-04-09T10:02:24.465Z,79.63
2023-04-09T10:03:31.355Z,79.62
2023-04-09T10:04:38.270Z,79.77
2023-04-09T10:05:42.075Z,79.86
2023-04-09T10:06:46.298Z,79.68
2023-04-09T10:07:49.733Z,79.27
2023-04-09T10:08:56.838Z,79.41
2023-04-09T10:10:02.277Z,79.12
2023-04-09T10:11:07.839Z,78.86
2023-04-09T10:12:12.196Z,79.37
2023-04-09T10:13:21.971Z,79.20
2023-04-09T10:14:26.341Z,78.97
2023-04-09T10:15:29.749Z,78.91
2023-04-09T10:16:33.032Z,78.52
2023-04-09T10:17:36.871Z,78.71
2023-04-09T10:18:42.303Z,78.91
2023-04-09T10:19:55.796Z,78.98
2023-04-09T10:21:04.766Z,78.68
2023-04-09T10:22:13.374Z,78.39
2023-04-09T10:23:37.113Z,78.37
2023-04-09T10:24:40.993Z,78.52
2023-04-09T10:25:44.322Z,78.67
2023-04-09T10:26:47.300Z,78.10
2023-04-09T10:28:17.538Z,78.13
2023-04-09T10:29:28.251Z,77.45
2023-04-09T10:30:35.279Z,77.17
2023-04-09T10:31:53.149Z,77.40
2023-04-09T10:32:56.617Z,76.98
2023-04-09T10:34:04.723Z,76.80
2023-04-09T10:35:09.547Z,76.56
2023-04-09T10:36:13.190Z,76.26
2023-04-09T10:37:24.675Z,75.81
2023-04-09T10:38:53.688Z,75.53
2023-04-09T10:39:57.982Z,75.19
2023-04-09T10:41:07.207Z,74.82
2023-04-09T10:42:22.110Z,74.93
2023-04-09T10:43:25.037Z,74.63
2023-04-09T10:44:28.824Z,74.35
2023-04-09T10:45:42.117Z,74.61
2023-04-09T10:46:46.156Z,74.30
2023-04-09T10:47:53.602Z,74.27
2023-04-09T10:49:19.337Z,74.48
2023-04-09T10:50:26.647Z,74.55
2023-04-09T10:51:35.318Z,74.00
2023-04-09T10:52:41.098Z,73.90
2023-04-09T10:53:43.949Z,73.51
2023-04-09T10:54:47.192Z,73.18
2023-04-09T10:55:52.147Z,73.71
2023-04-09T10:57:07.133Z,74.10
2023-04-09T10:58:13.458Z,73.96
2023-04-09T10:59:16.610Z,73.86
2023-04-09T11:00:19.529Z,73.96
2023-04-09T11:01:22.916Z,74.42
2023-04-09T11:02:32.108Z,74.44
2023-04-09T11:03:44.790Z,74.19
2023-04-09T11:05:13.539Z,74.15
2023-04-09T11:06:20.807Z,73.44
2023-04-09T11:07:25.242Z,73.85
2023-04-09T11:08:30.262Z,74.40
2023-04-09T11:09:37.119Z,74.32
2023-04-09T11:10:44.095Z,74.51
2023-04-09T11:11:53.313Z,74.12
2023-04-09T11:12:56.215Z,74.38
2023-04-09T11:14:03.321Z,74.81
2023-04-09T11:15:07.026Z,74.65
2023-04-09T11:16:12.139Z,74.59
2023-04-09T11:17:26.300Z,74.15
2023-04-09T11:18:34.891Z,74.16
2023-04-09T11:19:37.818Z,74.48
2023-04-09T11:20:40.849Z,73.57
2023-04-09T11:21:46.421Z,73.69
2023-04-09T11:22:53.854Z,73.82
2023-04-09T11:23:56.763Z,73.28
2023-04-09T11:24:59.629Z,73.08
2023-04-09T11:26:02.820Z,72.88
2023-04-09T11:27:05.756Z,72.68
2023-04-09T11:28:08.764Z,72.81
2023-04-09T11:29:11.771Z,72.63
2023-04-09T11:30:15.418Z,72.51
2023-04-09T11:31:18.401Z,72.53
2023-04-09T11:32:21.349Z,72.61
2023-04-09T11:33:32.004Z,72.87
2023-04-09T11:34:34.851Z,72.43
2023-04-09T11:35:37.881Z,72.00
2023-04-09T11:36:41.176Z,72.08
2023-04-09T11:37:45.413Z,71.78
2023-04-09T11:38:50.901Z,71.84
2023-04-09T11:39:57.344Z,71.65
2023-04-09T11:41:01.830Z,71.51
2023-04-09T11:42:04.726Z,71.54
2023-04-09T11:43:08.341Z,71.28
2023-04-09T11:44:11.246Z,71.40
2023-04-09T11:45:15.651Z,71.47
2023-04-09T11:46:18.651Z,71.67
2023-04-09T11:47:22.297Z,71.52
2023-04-09T11:48:25.338Z,71.17
2023-04-09T11:49:28.323Z,71.00
2023-04-09T11:50:32.256Z,71.09
2023-04-09T11:51:35.815Z,71.16
2023-04-09T11:52:41.390Z,71.28
2023-04-09T11:53:44.198Z,71.50
2023-04-09T11:54:50.405Z,71.84
2023-04-09T11:55:53.688Z,71.92
2023-04-09T11:56:59.352Z,72.10
2023-04-09T11:58:03.068Z,71.76
2023-04-09T11:59:06.360Z,71.43
2023-04-09T12:00:14.372Z,71.40
2023-04-09T12:01:17.283Z,71.24
2023-04-09T12:02:20.542Z,71.22
2023-04-09T12:03:31.351Z,71.00
2023-04-09T12:04:34.621Z,70.88
2023-04-09T12:05:39.863Z,70.37
2023-04-09T12:06:44.876Z,69.88
2023-04-09T12:07:55.381Z,70.06
2023-04-09T12:08:59.636Z,69.88
2023-04-09T12:10:10.527Z,70.06
2023-04-09T12:11:16.242Z,70.08
2023-04-09T12:12:24.160Z,69.70
2023-04-09T12:13:33.475Z,69.61
2023-04-09T12:14:36.493Z,69.15
2023-04-09T12:15:43.399Z,68.68
2023-04-09T12:16:51.549Z,68.34
2023-04-09T12:17:55.965Z,67.97
2023-04-09T12:19:09.238Z,68.32
2023-04-09T12:20:12.186Z,67.78
2023-04-09T12:21:16.179Z,67.49
2023-04-09T12:22:20.957Z,67.60
2023-04-09T12:23:23.811Z,67.13
2023-04-09T12:24:28.190Z,66.48
2023-04-09T12:25:45.467Z,66.77
2023-04-09T12:26:49.716Z,66.73
2023-04-09T12:27:52.936Z,66.80
2023-04-09T12:28:55.786Z,66.54
2023-04-09T12:29:58.658Z,66.78
2023-04-09T12:31:03.628Z,66.34
2023-04-09T12:32:06.783Z,65.78
2023-04-09T12:33:11.486Z,66.00
2023-04-09T12:34:14.601Z,66.41
2023-04-09T12:35:18.057Z,66.42
2023-04-09T12:36:21.005Z,66.42
2023-04-09T12:37:23.901Z,65.78
2023-04-09T12:38:26.933Z,65.58
2023-04-09T12:39:29.869Z,65.91
2023-04-09T12:40:33.013Z,66.05
2023-04-09T12:41:36.064Z,66.09
2023-04-09T12:42:38.946Z,66.24
2023-04-09T12:43:44.042Z,66.01
2023-04-09T12:44:46.968Z,66.02
2023-04-09T12:45:49.937Z,65.93
2023-04-09T12:46:52.887Z,66.00
2023-04-09T12:47:56.042Z,66.01
2023-04-09T12:48:58.999Z,66.26
2023-04-09T12:50:04.413Z,66.36
2023-04-09T12:51:07.484Z,66.73
2023-04-09T12:52:10.309Z,66.73
2023-04-09T12:53:13.232Z,66.88
2023-04-09T12:54:16.331Z,67.10
2023-04-09T12:55:19.216Z,67.21
2023-04-09T12:56:22.105Z,67.15
2023-04-09T12:57:24.987Z,66.88
2023-04-09T12:58:27.874Z,67.32
2023-04-09T12:59:30.883Z,67.42
2023-04-09T13:00:34.096Z,67.75
2023-04-09T13:01:36.993Z,67.73
2023-04-09T13:02:40.333Z,67.61
2023-04-09T13:03:43.447Z,67.87
2023-04-09T13:04:47.328Z,67.88
2023-04-09T13:05:50.694Z,67.69
2023-04-09T13:06:53.652Z,67.76
2023-04-09T13:07:56.579Z,67.78
2023-04-09T13:08:59.525Z,67.95
2023-04-09T13:10:02.435Z,68.19
2023-04-09T13:11:05.995Z,67.93
2023-04-09T13:12:08.870Z,67.88
2023-04-09T13:13:14.530Z,68.00
2023-04-09T13:14:17.416Z,68.11
2023-04-09T13:15:20.439Z,67.43
2023-04-09T13:16:23.329Z,67.00
2023-04-09T13:17:26.390Z,67.29
2023-04-09T13:18:29.285Z,67.21
2023-04-09T13:19:32.468Z,67.22
2023-04-09T13:20:35.462Z,67.13
2023-04-09T13:21:38.441Z,67.49
2023-04-09T13:22:41.394Z,67.29
2023-04-09T13:23:44.944Z,67.33
2023-04-09T13:24:47.831Z,67.43
2023-04-09T13:25:51.091Z,67.25
2023-04-09T13:26:54.170Z,67.28
2023-04-09T13:27:57.041Z,67.42
2023-04-09T13:29:00.205Z,67.49
2023-04-09T13:30:03.690Z,67.47
2023-04-09T13:31:06.739Z,67.43
2023-04-09T13:32:11.314Z,67.36
2023-04-09T13:33:14.284Z,67.24
2023-04-09T13:34:17.115Z,67.19
2023-04-09T13:35:20.037Z,67.32
2023-04-09T13:36:22.955Z,67.27
2023-04-09T13:37:26.144Z,67.27
2023-04-09T13:38:29.014Z,67.04
2023-04-09T13:39:32.152Z,67.27
2023-04-09T13:40:35.527Z,67.53
2023-04-09T13:41:38.410Z,67.56
2023-04-09T13:42:41.586Z,67.80
2023-04-09T13:43:45.214Z,68.01
2023-04-09T13:44:48.047Z,68.02
2023-04-09T13:45:50.956Z,68.07
2023-04-09T13:46:53.909Z,68.11
2023-04-09T13:47:56.831Z,68.15
2023-04-09T13:48:59.788Z,68.11
2023-04-09T13:50:03.112Z,68.13
2023-04-09T13:51:06.984Z,68.17
2023-04-09T13:52:10.835Z,68.25
2023-04-09T13:53:14.320Z,68.70
2023-04-09T13:54:18.685Z,68.26
2023-04-09T13:55:21.581Z,68.33
2023-04-09T13:56:25.329Z,68.34
2023-04-09T13:57:28.511Z,68.20
2023-04-09T13:58:31.619Z,67.84
2023-04-09T13:59:34.522Z,67.93
2023-04-09T14:00:38.352Z,68.11
2023-04-09T14:01:41.464Z,68.16